Huvudsida
METAR-TAF:

METAR-TAF

Flygplatser :

N'Djamena, Tchad

latitud: 12-08N, longitud: 015-02E, höjd: 295 m

Aktuellt väderrapport

Denna rapport gjordes för 35 minuter sedan, klockan 00:00 UTC
Stilla vind
Temperatur 21°C
Fuktighet 69%
Tryck 1009 hPa
Sikt: 8000 m

METAR: FTTJ 190000Z 00000KT 8000 NSC 21/15 Q1009 NOSIG

Tid: 01:35 (00:35 UTC)

Väderprognos

Denna rapport gjordes för 1 timme och 35 minuter sedan, klockan 23:00 UTC
Prognos gäller från 19 kl. 00 UTC till 20 kl. 06 UTC
Vind 2 kt varierande vindriktning
Sikt: 8000 m
Temporärt
från 19 kl. 04 UTC till 19 kl. 07 UTC
Sikt: 4000 m
torrdis
Blir
från 19 kl. 06 UTC till 19 kl. 08 UTC
Vind 10 kt från ost/nordost

TAF: FTTJ 182300Z 1900/2006 VRB02KT 8000 NSC TEMPO 1904/1907 4000 HZ BECMG 1906/1908 06010KT

Aktuella väderrapporter och prognoser från 4000 flygplatser (METAR- och TAF-rapporter).

De tillgängliga stationerna syns som gula och röda prickar på kartan.

För musen över prickarna för att se namnen på stationerna.

Klicka sedan för att få väderrapporter och prognoser.

För att ändra kartan: Klicka på de gröna knapparna med ett svart kors på för att zooma in; den gröna knappen med ett streck på för att zooma ut; eller på de gröna pilarna för angränsande kartor.


METAR-TAF: